Time;durP1;ratioP1;P1;durP2;ratioP2;P2;SDS_P1;SDS_P2;PMS_P1;PMS_P2;Temp;Humidity;BMP_temperature;BMP_pressure;BME280_temperature;BME280_humidity;BME280_pressure;Samples;Min_cycle;Max_cycle;Signal;HPM_P1;HPM_P2
2024/01/06 00:00:13;;;;;;;7.53;3.00;;;;;;;;;;7370887;19;20109;-76
2024/01/06 00:02:38;;;;;;;8.90;2.80;;;;;;;;;;7380143;19;20361;-76
2024/01/06 00:05:04;;;;;;;7.60;2.90;;;;;;;;;;7385937;19;20027;-77
2024/01/06 00:07:30;;;;;;;11.13;2.75;;;;;;;;;;7376728;19;20026;-76
2024/01/06 00:09:55;;;;;;;7.07;2.70;;;;;;;;;;7395018;19;20006;-76
2024/01/06 00:12:20;;;;;;;9.93;2.50;;;;;;;;;;7372677;19;20003;-76
2024/01/06 00:14:46;;;;;;;9.50;3.28;;;;;;;;;;7371432;19;20006;-76
2024/01/06 00:17:11;;;;;;;6.57;2.30;;;;;;;;;;7372238;19;20011;-76
2024/01/06 00:19:37;;;;;;;9.35;2.70;;;;;;;;;;7377666;19;20028;-76
2024/01/06 00:22:02;;;;;;;10.55;2.50;;;;;;;;;;7367659;19;20007;-76
2024/01/06 00:24:27;;;;;;;4.85;2.20;;;;;;;;;;7389897;19;20003;-76
2024/01/06 00:26:53;;;;;;;8.75;2.60;;;;;;;;;;7369718;19;20003;-77
2024/01/06 00:29:18;;;;;;;5.03;2.05;;;;;;;;;;7368687;19;20014;-77
2024/01/06 00:31:43;;;;;;;5.82;2.15;;;;;;;;;;7370566;19;20325;-76
2024/01/06 00:34:09;;;;;;;7.68;2.58;;;;;;;;;;7368242;19;20003;-77
2024/01/06 00:36:34;;;;;;;6.88;2.45;;;;;;;;;;7391451;19;20015;-76
2024/01/06 00:38:59;;;;;;;8.00;2.40;;;;;;;;;;7373273;19;20023;-76
2024/01/06 00:41:25;;;;;;;10.65;2.60;;;;;;;;;;7373299;19;20098;-78
2024/01/06 00:43:50;;;;;;;7.95;2.47;;;;;;;;;;7378419;19;20026;-77
2024/01/06 00:46:15;;;;;;;5.70;2.47;;;;;;;;;;7378038;19;20004;-77
2024/01/06 00:48:41;;;;;;;7.20;2.70;;;;;;;;;;7399630;19;20025;-77
2024/01/06 00:51:07;;;;;;;6.55;2.30;;;;;;;;;;7374251;19;20023;-77
2024/01/06 00:53:32;;;;;;;7.40;2.78;;;;;;;;;;7371158;19;20118;-77
2024/01/06 00:55:57;;;;;;;8.20;2.75;;;;;;;;;;7371168;19;20441;-77
2024/01/06 00:58:23;;;;;;;8.68;2.63;;;;;;;;;;7370448;19;20060;-77
2024/01/06 01:00:48;;;;;;;7.13;2.95;;;;;;;;;;7392943;19;20002;-77
2024/01/06 01:03:13;;;;;;;12.35;4.00;;;;;;;;;;7369971;19;20342;-77
2024/01/06 01:05:38;;;;;;;11.32;3.58;;;;;;;;;;7375438;19;20009;-77
2024/01/06 01:08:04;;;;;;;8.88;3.15;;;;;;;;;;7365736;19;20005;-77
2024/01/06 01:10:30;;;;;;;8.48;3.08;;;;;;;;;;7367035;19;20006;-77
2024/01/06 01:12:55;;;;;;;9.63;3.10;;;;;;;;;;7392008;19;20110;-77
2024/01/06 01:15:20;;;;;;;8.52;3.00;;;;;;;;;;7370706;19;20367;-77
2024/01/06 01:17:46;;;;;;;10.20;3.28;;;;;;;;;;7383081;19;20010;-77
2024/01/06 01:20:11;;;;;;;8.45;3.17;;;;;;;;;;7378942;19;20006;-77
2024/01/06 01:22:36;;;;;;;8.73;3.10;;;;;;;;;;7369199;19;20011;-77
2024/01/06 01:25:07;;;;;;;9.50;3.10;;;;;;;;;;7368502;19;20016;-76
2024/01/06 01:27:32;;;;;;;7.90;2.92;;;;;;;;;;7389980;19;20003;-76
2024/01/06 01:29:58;;;;;;;8.77;3.10;;;;;;;;;;7372790;19;20034;-77
2024/01/06 01:32:23;;;;;;;8.52;3.03;;;;;;;;;;7385330;19;20032;-77
2024/01/06 01:34:48;;;;;;;7.63;2.90;;;;;;;;;;7372395;19;20086;-76
2024/01/06 01:37:14;;;;;;;9.77;2.88;;;;;;;;;;7364664;19;20014;-76
2024/01/06 01:39:39;;;;;;;8.27;3.08;;;;;;;;;;7391285;19;20026;-76
2024/01/06 01:42:05;;;;;;;7.85;2.90;;;;;;;;;;7372291;19;20045;-76
2024/01/06 01:44:30;;;;;;;8.20;2.70;;;;;;;;;;7372750;19;19995;-76
2024/01/06 01:46:55;;;;;;;10.68;3.13;;;;;;;;;;7372953;19;20006;-76
2024/01/06 01:49:21;;;;;;;9.02;2.72;;;;;;;;;;7372816;19;20026;-77
2024/01/06 01:51:47;;;;;;;5.90;2.65;;;;;;;;;;7394658;19;20493;-76
2024/01/06 01:54:12;;;;;;;6.57;2.38;;;;;;;;;;7370212;19;20019;-76
2024/01/06 01:56:39;;;;;;;5.75;2.60;;;;;;;;;;7372850;19;20011;-77
2024/01/06 01:59:17;;;;;;;10.18;2.67;;;;;;;;;;7371813;19;20019;-76
2024/01/06 02:01:43;;;;;;;9.98;2.38;;;;;;;;;;7374084;19;20018;-76
2024/01/06 02:04:09;;;;;;;7.85;2.72;;;;;;;;;;7371472;19;20006;-77
2024/01/06 02:06:34;;;;;;;8.52;2.40;;;;;;;;;;7393868;19;20003;-76
2024/01/06 02:09:00;;;;;;;7.05;2.17;;;;;;;;;;7372210;19;20028;-76
2024/01/06 02:11:25;;;;;;;4.45;2.45;;;;;;;;;;7372734;19;20018;-77
2024/01/06 02:13:50;;;;;;;9.95;2.50;;;;;;;;;;7373363;19;20042;-77
2024/01/06 02:16:16;;;;;;;9.85;2.78;;;;;;;;;;7373623;19;20141;-77
2024/01/06 02:18:41;;;;;;;5.35;2.15;;;;;;;;;;7394451;19;20500;-76
2024/01/06 02:21:07;;;;;;;4.28;1.90;;;;;;;;;;7369323;19;20017;-76
2024/01/06 02:23:35;;;;;;;8.80;2.28;;;;;;;;;;7372621;19;20524;-76
2024/01/06 02:26:00;;;;;;;5.57;2.10;;;;;;;;;;7374074;19;20007;-76
2024/01/06 02:28:25;;;;;;;7.43;2.50;;;;;;;;;;7369589;19;20002;-76
2024/01/06 02:30:51;;;;;;;8.27;2.17;;;;;;;;;;7395580;19;20002;-76
2024/01/06 02:33:16;;;;;;;8.20;3.13;;;;;;;;;;7372462;19;19999;-76
2024/01/06 02:35:42;;;;;;;6.53;2.35;;;;;;;;;;7371849;19;20222;-76
2024/01/06 02:38:08;;;;;;;10.70;2.80;;;;;;;;;;7372190;19;20110;-76
2024/01/06 02:40:34;;;;;;;6.93;1.90;;;;;;;;;;7370934;19;20001;-76
2024/01/06 02:42:59;;;;;;;9.10;2.42;;;;;;;;;;7371212;19;20469;-76
2024/01/06 02:45:24;;;;;;;4.93;2.13;;;;;;;;;;7394046;19;20535;-75
2024/01/06 02:47:50;;;;;;;7.72;2.63;;;;;;;;;;7386629;19;20013;-77
2024/01/06 02:50:15;;;;;;;8.88;2.70;;;;;;;;;;7382233;19;20010;-76
2024/01/06 02:52:41;;;;;;;8.95;2.33;;;;;;;;;;7371897;19;20014;-75
2024/01/06 02:55:06;;;;;;;5.78;2.20;;;;;;;;;;7370421;19;19998;-76
2024/01/06 02:57:32;;;;;;;5.10;2.20;;;;;;;;;;7392100;19;20098;-76
2024/01/06 02:59:57;;;;;;;8.32;2.25;;;;;;;;;;7370689;19;20010;-76
2024/01/06 03:02:23;;;;;;;7.40;2.20;;;;;;;;;;7371195;19;20015;-75
2024/01/06 03:04:48;;;;;;;7.60;2.58;;;;;;;;;;7369273;19;20077;-76
2024/01/06 03:07:14;;;;;;;4.57;2.25;;;;;;;;;;7368088;19;20042;-76
2024/01/06 03:09:39;;;;;;;9.40;2.15;;;;;;;;;;7389384;19;20041;-75
2024/01/06 03:12:07;;;;;;;6.15;1.98;;;;;;;;;;7368889;19;20396;-75
2024/01/06 03:14:34;;;;;;;6.30;2.55;;;;;;;;;;7370941;19;20014;-76
2024/01/06 03:16:59;;;;;;;9.63;2.53;;;;;;;;;;7370716;19;20017;-76
2024/01/06 03:19:27;;;;;;;9.88;2.40;;;;;;;;;;7369801;19;20014;-76
2024/01/06 03:21:52;;;;;;;5.10;2.40;;;;;;;;;;7392325;19;20010;-75
2024/01/06 03:24:18;;;;;;;5.03;2.17;;;;;;;;;;7367545;19;20019;-76
2024/01/06 03:26:43;;;;;;;6.72;2.25;;;;;;;;;;7369422;19;20014;-76
2024/01/06 03:29:08;;;;;;;6.03;2.50;;;;;;;;;;7370429;19;20038;-77
2024/01/06 03:31:34;;;;;;;6.40;2.60;;;;;;;;;;7374753;19;20030;-76
2024/01/06 03:33:59;;;;;;;8.50;2.65;;;;;;;;;;7384239;19;20007;-76
2024/01/06 03:36:25;;;;;;;6.30;2.33;;;;;;;;;;7399306;19;20002;-76
2024/01/06 03:38:50;;;;;;;7.80;2.72;;;;;;;;;;7369368;19;20049;-76
2024/01/06 03:41:15;;;;;;;8.55;2.58;;;;;;;;;;7370967;19;20041;-77
2024/01/06 03:43:41;;;;;;;9.23;3.17;;;;;;;;;;7370818;19;20006;-76
2024/01/06 03:46:06;;;;;;;10.32;3.20;;;;;;;;;;7370412;19;20070;-75
2024/01/06 03:48:31;;;;;;;6.18;2.95;;;;;;;;;;7391973;19;19990;-77
2024/01/06 03:50:58;;;;;;;7.75;2.97;;;;;;;;;;7369342;19;20030;-77
2024/01/06 03:53:24;;;;;;;11.05;2.80;;;;;;;;;;7367629;19;20026;-76
2024/01/06 03:55:49;;;;;;;6.13;3.58;;;;;;;;;;7369487;19;19998;-76
2024/01/06 03:58:14;;;;;;;11.18;3.78;;;;;;;;;;7368532;19;20014;-76
2024/01/06 04:00:39;;;;;;;11.80;3.67;;;;;;;;;;7390405;19;20017;-75
2024/01/06 04:03:06;;;;;;;9.75;3.90;;;;;;;;;;7368181;19;20011;-75
2024/01/06 04:05:32;;;;;;;9.65;4.28;;;;;;;;;;7372145;19;20466;-76
2024/01/06 04:07:57;;;;;;;10.32;4.00;;;;;;;;;;7383447;19;20011;-76
2024/01/06 04:10:22;;;;;;;11.85;4.15;;;;;;;;;;7386161;19;20507;-76
2024/01/06 04:12:47;;;;;;;11.60;4.45;;;;;;;;;;7406719;19;20002;-76
2024/01/06 04:15:13;;;;;;;8.73;4.05;;;;;;;;;;7382707;19;20010;-76
2024/01/06 04:17:38;;;;;;;10.00;4.00;;;;;;;;;;7381768;19;20006;-76
2024/01/06 04:20:04;;;;;;;9.95;3.70;;;;;;;;;;7383319;19;20013;-76
2024/01/06 04:22:29;;;;;;;9.05;3.28;;;;;;;;;;7384812;19;20031;-76
2024/01/06 04:24:55;;;;;;;10.75;3.30;;;;;;;;;;7408693;19;20126;-76
2024/01/06 04:27:20;;;;;;;6.32;3.03;;;;;;;;;;7384323;19;20074;-76
2024/01/06 04:29:46;;;;;;;8.57;3.30;;;;;;;;;;7381484;19;20002;-76
2024/01/06 04:32:11;;;;;;;11.90;2.78;;;;;;;;;;7379016;19;20011;-76
2024/01/06 04:34:36;;;;;;;10.45;2.50;;;;;;;;;;7365458;19;20014;-76
2024/01/06 04:37:02;;;;;;;10.05;2.97;;;;;;;;;;7367439;19;20006;-76
2024/01/06 04:39:27;;;;;;;7.88;2.90;;;;;;;;;;7388248;19;20003;-76
2024/01/06 04:41:52;;;;;;;5.88;2.15;;;;;;;;;;7366772;19;20612;-76
2024/01/06 04:44:22;;;;;;;6.28;2.30;;;;;;;;;;7367144;19;20025;-76
2024/01/06 04:46:47;;;;;;;5.72;2.35;;;;;;;;;;7367905;19;20013;-76
2024/01/06 04:49:12;;;;;;;8.07;2.60;;;;;;;;;;7367597;19;20038;-76
2024/01/06 04:51:38;;;;;;;6.53;2.47;;;;;;;;;;7391842;19;20019;-76
2024/01/06 04:54:03;;;;;;;10.98;2.67;;;;;;;;;;7367665;19;20094;-76
2024/01/06 04:56:28;;;;;;;8.40;3.03;;;;;;;;;;7367265;19;20116;-76
2024/01/06 04:58:54;;;;;;;9.40;2.90;;;;;;;;;;7366749;19;20621;-76
2024/01/06 05:01:20;;;;;;;10.95;3.10;;;;;;;;;;7365778;19;20034;-76
2024/01/06 05:03:45;;;;;;;12.02;3.63;;;;;;;;;;7387373;19;20011;-76
2024/01/06 05:06:10;;;;;;;10.52;3.63;;;;;;;;;;7363044;19;20461;-76
2024/01/06 05:08:38;;;;;;;9.50;3.53;;;;;;;;;;7364112;19;20013;-76
2024/01/06 05:11:05;;;;;;;7.82;3.05;;;;;;;;;;7365422;19;20007;-76
2024/01/06 05:13:30;;;;;;;8.25;2.70;;;;;;;;;;7366236;19;20372;-76
2024/01/06 05:15:55;;;;;;;43.72;20.92;;;;;;;;;;7395120;19;20007;-76
2024/01/06 05:18:21;;;;;;;18.70;6.68;;;;;;;;;;7372162;19;20007;-76
2024/01/06 05:20:46;;;;;;;11.70;5.38;;;;;;;;;;7370553;19;20029;-76
2024/01/06 05:23:12;;;;;;;7.70;3.35;;;;;;;;;;7371525;19;20334;-76
2024/01/06 05:25:37;;;;;;;6.90;2.92;;;;;;;;;;7372433;19;20003;-76
2024/01/06 05:28:02;;;;;;;7.15;3.30;;;;;;;;;;7372914;19;20006;-76
2024/01/06 05:30:28;;;;;;;10.63;3.20;;;;;;;;;;7395217;19;20013;-76
2024/01/06 05:32:54;;;;;;;20.02;9.38;;;;;;;;;;7370967;19;20023;-76
2024/01/06 05:35:19;;;;;;;8.30;3.78;;;;;;;;;;7372116;19;20117;-76
2024/01/06 05:37:44;;;;;;;9.95;3.83;;;;;;;;;;7373750;19;20027;-77
2024/01/06 05:40:11;;;;;;;13.57;3.85;;;;;;;;;;7391467;19;20023;-77
2024/01/06 05:42:36;;;;;;;10.55;4.15;;;;;;;;;;7407355;19;19999;-77
2024/01/06 05:45:02;;;;;;;10.07;4.10;;;;;;;;;;7371536;19;20002;-77
2024/01/06 05:47:27;;;;;;;8.63;3.55;;;;;;;;;;7376045;19;20122;-76
2024/01/06 05:49:52;;;;;;;10.60;3.75;;;;;;;;;;7390689;19;20010;-77
2024/01/06 05:52:17;;;;;;;59.83;29.33;;;;;;;;;;7379623;19;20123;-78
2024/01/06 05:54:43;;;;;;;21.95;9.32;;;;;;;;;;7396503;19;20003;-77
2024/01/06 05:57:08;;;;;;;16.90;4.63;;;;;;;;;;7383736;19;20126;-77
2024/01/06 05:59:34;;;;;;;10.23;3.70;;;;;;;;;;7375183;19;20045;-76
2024/01/06 06:02:00;;;;;;;8.73;3.63;;;;;;;;;;7381030;19;20011;-77
2024/01/06 06:04:25;;;;;;;7.53;3.25;;;;;;;;;;7382228;19;20070;-77
2024/01/06 06:06:50;;;;;;;8.73;3.55;;;;;;;;;;7409867;19;20006;-77
2024/01/06 06:09:16;;;;;;;15.55;6.10;;;;;;;;;;7391888;19;20018;-77
2024/01/06 06:11:41;;;;;;;10.77;5.57;;;;;;;;;;7389805;19;20013;-77
2024/01/06 06:14:06;;;;;;;14.60;4.00;;;;;;;;;;7372297;19;20013;-76
2024/01/06 06:16:32;;;;;;;9.98;3.80;;;;;;;;;;7372449;19;20022;-76
2024/01/06 06:18:58;;;;;;;7.68;3.42;;;;;;;;;;7382512;19;20019;-78
2024/01/06 06:21:23;;;;;;;7.38;3.28;;;;;;;;;;7392948;19;20003;-77
2024/01/06 06:23:49;;;;;;;10.43;3.63;;;;;;;;;;7375228;19;20070;-76
2024/01/06 06:26:15;;;;;;;10.57;3.50;;;;;;;;;;7362089;19;20389;-76
2024/01/06 06:28:41;;;;;;;9.48;3.40;;;;;;;;;;7370913;19;20114;-77
2024/01/06 06:31:07;;;;;;;11.40;4.60;;;;;;;;;;7372646;19;20006;-76
2024/01/06 06:33:33;;;;;;;8.52;3.15;;;;;;;;;;7395256;19;20083;-76
2024/01/06 06:35:58;;;;;;;7.53;3.30;;;;;;;;;;7373477;19;20014;-77
2024/01/06 06:38:25;;;;;;;8.30;3.83;;;;;;;;;;7374147;19;20003;-76
2024/01/06 06:40:50;;;;;;;8.82;3.20;;;;;;;;;;7373644;19;20031;-76
2024/01/06 06:43:16;;;;;;;10.40;3.95;;;;;;;;;;7374136;19;20008;-76
2024/01/06 06:45:41;;;;;;;9.15;3.45;;;;;;;;;;7397634;19;20002;-76
2024/01/06 06:48:07;;;;;;;7.20;3.10;;;;;;;;;;7364841;19;20014;-76
2024/01/06 06:50:32;;;;;;;6.70;2.90;;;;;;;;;;7368607;19;20580;-77
2024/01/06 06:52:58;;;;;;;8.27;3.05;;;;;;;;;;7366164;19;20018;-77
2024/01/06 06:55:24;;;;;;;8.00;3.25;;;;;;;;;;7369079;19;20022;-76
2024/01/06 06:57:49;;;;;;;8.32;3.05;;;;;;;;;;7388722;19;20101;-76
2024/01/06 07:00:16;;;;;;;10.23;3.20;;;;;;;;;;7368198;19;20007;-76
2024/01/06 07:02:41;;;;;;;6.82;2.80;;;;;;;;;;7370475;19;20726;-77
2024/01/06 07:05:07;;;;;;;8.27;3.00;;;;;;;;;;7371973;19;20094;-76
2024/01/06 07:07:34;;;;;;;7.10;2.90;;;;;;;;;;7372244;19;20025;-77
2024/01/06 07:10:06;;;;;;;9.38;3.10;;;;;;;;;;7372884;19;20382;-77
2024/01/06 07:12:32;;;;;;;6.82;3.00;;;;;;;;;;7397356;19;20013;-77
2024/01/06 07:14:58;;;;;;;10.02;3.20;;;;;;;;;;7371803;19;20011;-76
2024/01/06 07:17:24;;;;;;;7.40;3.42;;;;;;;;;;7370928;19;20307;-77
2024/01/06 07:19:49;;;;;;;11.18;3.30;;;;;;;;;;7372735;19;20010;-77
2024/01/06 07:22:16;;;;;;;7.93;3.42;;;;;;;;;;7373251;19;19999;-76
2024/01/06 07:24:42;;;;;;;7.30;3.00;;;;;;;;;;7397119;19;20002;-76
2024/01/06 07:27:07;;;;;;;5.68;2.78;;;;;;;;;;7366139;19;20068;-77
2024/01/06 07:29:33;;;;;;;8.05;3.20;;;;;;;;;;7375681;19;20070;-77
2024/01/06 07:31:58;;;;;;;7.82;2.90;;;;;;;;;;7369895;19;20007;-76
2024/01/06 07:34:25;;;;;;;10.95;3.60;;;;;;;;;;7373523;19;20002;-75
2024/01/06 07:36:50;;;;;;;9.90;3.85;;;;;;;;;;7398327;19;20038;-76
2024/01/06 07:39:15;;;;;;;8.27;3.42;;;;;;;;;;7367647;19;20007;-76
2024/01/06 07:41:41;;;;;;;9.65;3.20;;;;;;;;;;7368775;19;20394;-76
2024/01/06 07:44:06;;;;;;;10.93;3.28;;;;;;;;;;7371416;19;20818;-77
2024/01/06 07:46:32;;;;;;;7.13;3.38;;;;;;;;;;7369676;19;20385;-76
2024/01/06 07:48:57;;;;;;;7.40;2.88;;;;;;;;;;7389265;19;20003;-76
2024/01/06 07:51:22;;;;;;;11.02;3.53;;;;;;;;;;7386575;19;20023;-77
2024/01/06 07:53:48;;;;;;;8.05;3.08;;;;;;;;;;7374869;19;20094;-77
2024/01/06 07:56:13;;;;;;;6.05;3.10;;;;;;;;;;7374435;19;20503;-76
2024/01/06 07:58:38;;;;;;;7.20;3.10;;;;;;;;;;7372685;19;20013;-77
2024/01/06 08:01:04;;;;;;;5.93;2.60;;;;;;;;;;7381730;19;20051;-77
2024/01/06 08:03:29;;;;;;;6.93;2.80;;;;;;;;;;7407118;19;20006;-77
2024/01/06 08:05:55;;;;;;;6.70;2.80;;;;;;;;;;7388293;19;20014;-77
2024/01/06 08:08:20;;;;;;;9.80;3.13;;;;;;;;;;7377334;19;20082;-76
2024/01/06 08:10:46;;;;;;;6.88;2.90;;;;;;;;;;7375815;19;20117;-78
2024/01/06 08:13:11;;;;;;;9.43;3.08;;;;;;;;;;7370473;19;20035;-78
2024/01/06 08:15:37;;;;;;;7.78;3.10;;;;;;;;;;7392789;19;20010;-77
2024/01/06 08:18:03;;;;;;;6.28;2.83;;;;;;;;;;7366822;19;20010;-76
2024/01/06 08:20:28;;;;;;;6.50;2.90;;;;;;;;;;7369320;19;20070;-77
2024/01/06 08:22:54;;;;;;;6.00;3.30;;;;;;;;;;7377612;19;20025;-77
2024/01/06 08:25:20;;;;;;;9.88;3.63;;;;;;;;;;7379757;19;20020;-77
2024/01/06 08:27:45;;;;;;;8.70;3.17;;;;;;;;;;7400377;19;20006;-78
2024/01/06 08:30:11;;;;;;;8.73;3.53;;;;;;;;;;7374430;19;20011;-77
2024/01/06 08:32:36;;;;;;;6.60;3.55;;;;;;;;;;7375190;19;20014;-77
2024/01/06 08:35:02;;;;;;;7.63;3.30;;;;;;;;;;7375913;19;20010;-77
2024/01/06 08:37:29;;;;;;;7.63;3.80;;;;;;;;;;7376636;19;20002;-77
2024/01/06 08:39:54;;;;;;;6.35;3.03;;;;;;;;;;7397068;19;20016;-77
2024/01/06 08:42:19;;;;;;;7.13;2.78;;;;;;;;;;7374536;19;20002;-77
2024/01/06 08:44:45;;;;;;;6.30;2.80;;;;;;;;;;7373023;19;20010;-77
2024/01/06 08:47:10;;;;;;;7.63;3.13;;;;;;;;;;7370002;19;20113;-77
2024/01/06 08:49:36;;;;;;;8.95;3.20;;;;;;;;;;7376922;19;20014;-77
2024/01/06 08:52:01;;;;;;;7.18;3.10;;;;;;;;;;7377354;19;19998;-77
2024/01/06 08:54:26;;;;;;;5.95;3.10;;;;;;;;;;7394708;19;20464;-76
2024/01/06 08:56:52;;;;;;;7.10;3.17;;;;;;;;;;7374756;19;20220;-77
2024/01/06 08:59:17;;;;;;;7.65;3.60;;;;;;;;;;7376652;19;20723;-76
2024/01/06 09:01:42;;;;;;;8.27;3.40;;;;;;;;;;7372423;19;20007;-71
2024/01/06 09:04:09;;;;;;;7.65;3.22;;;;;;;;;;7373885;19;20011;-70
2024/01/06 09:06:34;;;;;;;9.07;3.58;;;;;;;;;;7398926;19;20010;-71
2024/01/06 09:08:59;;;;;;;8.20;3.42;;;;;;;;;;7376856;19;20014;-71
2024/01/06 09:11:25;;;;;;;8.18;3.92;;;;;;;;;;7375533;19;20026;-70
2024/01/06 09:13:52;;;;;;;7.35;3.25;;;;;;;;;;7379200;19;20010;-70
2024/01/06 09:16:18;;;;;;;7.78;3.47;;;;;;;;;;7377548;19;20079;-70
2024/01/06 09:18:43;;;;;;;7.95;3.50;;;;;;;;;;7403733;19;20003;-71
2024/01/06 09:21:09;;;;;;;8.68;3.47;;;;;;;;;;7374290;19;20026;-71
2024/01/06 09:23:34;;;;;;;8.77;3.55;;;;;;;;;;7374084;19;20370;-70
2024/01/06 09:25:59;;;;;;;9.13;3.70;;;;;;;;;;7374674;19;20432;-70
2024/01/06 09:28:25;;;;;;;6.57;3.45;;;;;;;;;;7374304;19;20015;-70
2024/01/06 09:30:52;;;;;;;7.72;3.65;;;;;;;;;;7396791;19;20003;-70
2024/01/06 09:33:17;;;;;;;8.45;3.30;;;;;;;;;;7372200;19;20039;-70
2024/01/06 09:35:44;;;;;;;7.55;3.45;;;;;;;;;;7375427;19;20010;-71
2024/01/06 09:38:10;;;;;;;6.70;3.15;;;;;;;;;;7375380;19;20014;-71
2024/01/06 09:40:36;;;;;;;7.00;3.47;;;;;;;;;;7373951;19;20021;-71
2024/01/06 09:43:01;;;;;;;9.60;4.30;;;;;;;;;;7373103;19;20006;-70
2024/01/06 09:45:28;;;;;;;8.68;3.75;;;;;;;;;;7397522;19;20011;-76
2024/01/06 09:47:55;;;;;;;11.85;7.15;;;;;;;;;;7375627;19;20006;-74
2024/01/06 09:50:21;;;;;;;8.13;3.78;;;;;;;;;;7372569;19;20006;-72
2024/01/06 09:52:55;;;;;;;5.82;3.60;;;;;;;;;;7372713;19;20031;-75
2024/01/06 09:55:26;;;;;;;10.70;4.20;;;;;;;;;;7373442;19;20035;-74
2024/01/06 09:57:55;;;;;;;8.30;4.63;;;;;;;;;;7393671;19;20013;-74
2024/01/06 10:00:21;;;;;;;13.95;7.85;;;;;;;;;;7371250;19;20088;-74
2024/01/06 10:02:51;;;;;;;20.88;11.23;;;;;;;;;;7376517;19;20011;-75
2024/01/06 10:05:17;;;;;;;13.05;8.68;;;;;;;;;;7372712;19;20003;-76
2024/01/06 10:07:43;;;;;;;17.80;10.35;;;;;;;;;;7373611;19;20010;-76
2024/01/06 10:10:10;;;;;;;13.05;7.45;;;;;;;;;;7372518;19;20402;-76
2024/01/06 10:12:38;;;;;;;9.60;6.22;;;;;;;;;;7393819;19;19999;-77
2024/01/06 10:15:04;;;;;;;13.85;6.53;;;;;;;;;;7372220;19;20006;-76
2024/01/06 10:17:29;;;;;;;11.50;5.55;;;;;;;;;;7373352;19;20127;-76
2024/01/06 10:19:56;;;;;;;11.50;5.80;;;;;;;;;;7391416;19;20367;-76
2024/01/06 10:22:21;;;;;;;6.72;4.82;;;;;;;;;;7383178;19;20003;-76
2024/01/06 10:24:47;;;;;;;11.75;4.07;;;;;;;;;;7391948;19;20038;-76
2024/01/06 10:27:12;;;;;;;10.73;4.50;;;;;;;;;;7371014;19;20003;-76
2024/01/06 10:29:37;;;;;;;11.32;4.78;;;;;;;;;;7370820;19;20021;-76
2024/01/06 10:32:04;;;;;;;7.05;4.35;;;;;;;;;;7371026;19;20019;-72
2024/01/06 10:34:32;;;;;;;10.02;4.63;;;;;;;;;;7371580;19;20011;-72
2024/01/06 10:36:57;;;;;;;8.13;4.40;;;;;;;;;;7386887;19;20007;-71
2024/01/06 10:39:23;;;;;;;7.30;4.57;;;;;;;;;;7391045;19;20007;-72
2024/01/06 10:41:49;;;;;;;11.18;5.05;;;;;;;;;;7370826;19;20018;-76
2024/01/06 10:44:15;;;;;;;11.77;5.88;;;;;;;;;;7378966;19;20002;-76
2024/01/06 10:46:41;;;;;;;10.15;6.72;;;;;;;;;;7367504;19;20017;-76
2024/01/06 10:49:10;;;;;;;21.23;13.77;;;;;;;;;;7366922;19;20019;-76
2024/01/06 10:51:37;;;;;;;17.77;10.77;;;;;;;;;;7391459;19;20006;-76
2024/01/06 10:54:03;;;;;;;10.82;6.05;;;;;;;;;;7368263;19;20006;-78
2024/01/06 10:56:29;;;;;;;10.68;4.10;;;;;;;;;;7368374;19;20042;-75
2024/01/06 10:58:56;;;;;;;8.57;4.50;;;;;;;;;;7367272;19;20011;-77
2024/01/06 11:01:27;;;;;;;11.05;4.75;;;;;;;;;;7369062;19;20018;-75
2024/01/06 11:03:54;;;;;;;11.00;4.60;;;;;;;;;;7396622;19;19999;-76
2024/01/06 11:06:20;;;;;;;12.02;7.07;;;;;;;;;;7375877;19;20006;-76
2024/01/06 11:09:04;;;;;;;9.50;5.63;;;;;;;;;;7375677;19;20389;-77
2024/01/06 11:11:31;;;;;;;6.50;3.50;;;;;;;;;;7372507;19;20006;-75
2024/01/06 11:14:21;;;;;;;6.13;3.45;;;;;;;;;;7377425;19;20006;-75
2024/01/06 11:16:46;;;;;;;6.18;3.63;;;;;;;;;;7372895;19;20042;-76
2024/01/06 11:19:49;;;;;;;8.35;3.67;;;;;;;;;;7378084;19;20027;-76
2024/01/06 11:22:28;;;;;;;15.50;10.55;;;;;;;;;;7372782;19;20023;-76
2024/01/06 11:24:58;;;;;;;7.53;4.03;;;;;;;;;;7393966;19;20026;-76
2024/01/06 11:27:28;;;;;;;8.07;3.72;;;;;;;;;;7369285;19;20011;-76
2024/01/06 11:29:55;;;;;;;7.45;3.65;;;;;;;;;;7367105;19;20495;-76
2024/01/06 11:32:29;;;;;;;7.03;3.55;;;;;;;;;;7367160;19;20458;-76
2024/01/06 11:34:58;;;;;;;5.35;3.42;;;;;;;;;;7367425;19;20014;-76
2024/01/06 11:37:26;;;;;;;6.70;3.47;;;;;;;;;;7368002;19;20006;-75
2024/01/06 11:39:51;;;;;;;7.63;3.50;;;;;;;;;;7392374;19;19999;-75
2024/01/06 11:42:16;;;;;;;6.95;3.38;;;;;;;;;;7376325;19;20017;-76
2024/01/06 11:44:49;;;;;;;6.97;3.50;;;;;;;;;;7376744;19;20022;-76
2024/01/06 11:47:23;;;;;;;5.55;3.25;;;;;;;;;;7366932;19;20033;-77
2024/01/06 11:49:55;;;;;;;7.53;3.67;;;;;;;;;;7364896;19;20011;-75
2024/01/06 11:52:21;;;;;;;6.88;3.47;;;;;;;;;;7366016;19;20025;-77
2024/01/06 11:54:46;;;;;;;5.80;3.60;;;;;;;;;;7390334;19;20007;-78
2024/01/06 11:57:12;;;;;;;7.22;3.55;;;;;;;;;;7366883;19;20085;-78
2024/01/06 11:59:37;;;;;;;6.85;3.60;;;;;;;;;;7367321;19;20017;-77
2024/01/06 12:02:03;;;;;;;7.30;3.75;;;;;;;;;;7366789;19;20067;-77
2024/01/06 12:04:29;;;;;;;5.80;3.53;;;;;;;;;;7367781;19;20041;-75
2024/01/06 12:07:05;;;;;;;8.85;4.47;;;;;;;;;;7390969;19;20007;-79
2024/01/06 12:09:30;;;;;;;7.05;3.90;;;;;;;;;;7376903;19;20007;-76
2024/01/06 12:12:05;;;;;;;5.25;3.42;;;;;;;;;;7371968;19;20009;-76
2024/01/06 12:14:31;;;;;;;7.85;4.18;;;;;;;;;;7369325;19;20003;-76
2024/01/06 12:17:03;;;;;;;6.97;3.97;;;;;;;;;;7376463;19;19998;-78
2024/01/06 12:19:33;;;;;;;6.57;3.97;;;;;;;;;;7377164;19;20081;-77
2024/01/06 12:21:58;;;;;;;10.77;4.78;;;;;;;;;;7381811;19;20048;-77
2024/01/06 12:24:24;;;;;;;10.50;5.43;;;;;;;;;;7391697;19;20003;-77
2024/01/06 12:26:51;;;;;;;11.18;5.13;;;;;;;;;;7370718;19;20046;-77
2024/01/06 12:29:17;;;;;;;9.70;5.00;;;;;;;;;;7370095;19;20006;-77
2024/01/06 12:31:43;;;;;;;7.60;4.90;;;;;;;;;;7370508;19;20017;-77
2024/01/06 12:34:09;;;;;;;12.75;5.80;;;;;;;;;;7374924;19;20336;-77
2024/01/06 12:36:37;;;;;;;8.95;5.20;;;;;;;;;;7403497;19;20010;-76
2024/01/06 12:39:03;;;;;;;8.18;4.60;;;;;;;;;;7370267;19;20011;-77
2024/01/06 12:41:29;;;;;;;7.72;4.00;;;;;;;;;;7369079;19;20013;-77
2024/01/06 12:43:54;;;;;;;7.63;4.25;;;;;;;;;;7381255;19;20440;-77
2024/01/06 12:46:20;;;;;;;7.88;4.07;;;;;;;;;;7373079;19;20030;-77
2024/01/06 12:48:46;;;;;;;7.50;4.00;;;;;;;;;;7400030;19;20007;-78
2024/01/06 12:51:11;;;;;;;8.18;3.85;;;;;;;;;;7368087;19;20356;-77
2024/01/06 12:53:36;;;;;;;6.30;4.20;;;;;;;;;;7362764;19;20831;-75
2024/01/06 12:56:02;;;;;;;11.45;4.30;;;;;;;;;;7361979;19;20568;-74
2024/01/06 12:58:27;;;;;;;6.03;3.50;;;;;;;;;;7363687;19;20006;-75
2024/01/06 13:00:52;;;;;;;8.32;4.18;;;;;;;;;;7382069;19;20492;-76
2024/01/06 13:03:18;;;;;;;7.97;4.15;;;;;;;;;;7361053;19;20007;-77
2024/01/06 13:05:44;;;;;;;7.90;3.95;;;;;;;;;;7362826;19;20045;-76
2024/01/06 13:08:09;;;;;;;7.65;3.92;;;;;;;;;;7364080;19;20016;-77
2024/01/06 13:10:35;;;;;;;8.25;4.45;;;;;;;;;;7359564;19;20083;-75
2024/01/06 13:13:01;;;;;;;7.75;4.03;;;;;;;;;;7363331;19;20007;-75
2024/01/06 13:15:26;;;;;;;7.95;3.75;;;;;;;;;;7382706;19;20007;-75
2024/01/06 13:17:52;;;;;;;7.05;4.10;;;;;;;;;;7362231;19;20843;-76
2024/01/06 13:20:17;;;;;;;7.25;4.10;;;;;;;;;;7361623;19;20476;-75
2024/01/06 13:22:42;;;;;;;7.75;3.88;;;;;;;;;;7363336;19;20022;-75
2024/01/06 13:25:08;;;;;;;8.05;4.22;;;;;;;;;;7364679;19;19998;-75
2024/01/06 13:27:34;;;;;;;7.68;5.07;;;;;;;;;;7382451;19;19999;-76
2024/01/06 13:29:59;;;;;;;7.30;4.35;;;;;;;;;;7360459;19;20125;-75
2024/01/06 13:32:26;;;;;;;7.18;4.60;;;;;;;;;;7359944;19;20036;-75
2024/01/06 13:35:01;;;;;;;7.55;4.55;;;;;;;;;;7368515;19;20010;-75
2024/01/06 13:37:27;;;;;;;7.95;4.28;;;;;;;;;;7373584;19;20011;-77
2024/01/06 13:39:53;;;;;;;6.57;4.32;;;;;;;;;;7395501;19;20016;-76
2024/01/06 13:42:18;;;;;;;9.38;4.68;;;;;;;;;;7367693;19;20010;-74
2024/01/06 13:44:44;;;;;;;8.52;4.45;;;;;;;;;;7372328;19;20415;-76
2024/01/06 13:47:09;;;;;;;7.13;4.80;;;;;;;;;;7366711;19;20453;-75
2024/01/06 13:49:34;;;;;;;10.68;6.43;;;;;;;;;;7367649;19;20079;-76
2024/01/06 13:52:00;;;;;;;10.77;6.78;;;;;;;;;;7368825;19;19999;-76
2024/01/06 13:54:25;;;;;;;13.70;6.55;;;;;;;;;;7386074;19;20010;-75
2024/01/06 13:56:51;;;;;;;11.30;6.50;;;;;;;;;;7367997;19;20019;-75
2024/01/06 13:59:17;;;;;;;10.95;5.50;;;;;;;;;;7355443;19;20025;-75
2024/01/06 14:01:43;;;;;;;10.80;5.80;;;;;;;;;;7366689;19;20081;-74
2024/01/06 14:04:08;;;;;;;10.20;5.72;;;;;;;;;;7368290;19;20030;-75
2024/01/06 14:06:33;;;;;;;10.07;5.15;;;;;;;;;;7390197;19;20797;-74
2024/01/06 14:08:59;;;;;;;15.13;5.97;;;;;;;;;;7365770;19;20018;-74
2024/01/06 14:11:30;;;;;;;10.75;6.22;;;;;;;;;;7367694;19;20010;-76
2024/01/06 14:13:57;;;;;;;12.98;6.22;;;;;;;;;;7369217;19;20022;-76
2024/01/06 14:16:22;;;;;;;15.43;6.90;;;;;;;;;;7370671;19;20069;-75
2024/01/06 14:18:47;;;;;;;15.05;6.78;;;;;;;;;;7392991;19;20078;-76
2024/01/06 14:21:19;;;;;;;11.07;6.40;;;;;;;;;;7369838;19;20015;-76
2024/01/06 14:23:49;;;;;;;12.30;6.00;;;;;;;;;;7370138;19;20003;-76
2024/01/06 14:26:14;;;;;;;13.00;6.22;;;;;;;;;;7371332;19;20010;-76
2024/01/06 14:28:40;;;;;;;14.57;6.90;;;;;;;;;;7371523;19;20017;-75
2024/01/06 14:31:05;;;;;;;10.95;6.15;;;;;;;;;;7371344;19;19999;-75